Time;durP1;ratioP1;P1;durP2;ratioP2;P2;SDS_P1;SDS_P2;PMS_P1;PMS_P2;Temp;Humidity;BMP_temperature;BMP_pressure;BME280_temperature;BME280_humidity;BME280_pressure;Samples;Min_cycle;Max_cycle;Signal;HPM_P1;HPM_P2
2023/04/11 00:01:50;;;;;;;18.05;4.07;;;;;;;9.83;90.37;100816.53;4979425;28;20459;-84
2023/04/11 00:04:19;;;;;;;19.02;4.68;;;;;;;9.50;90.35;100754.53;4963443;28;20093;-85
2023/04/11 00:06:49;;;;;;;19.13;4.43;;;;;;;9.90;90.30;100826.31;4996521;28;20027;-85
2023/04/11 00:09:32;;;;;;;24.17;5.07;;;;;;;9.58;89.83;100771.34;4963429;28;20042;-85
2023/04/11 00:12:21;;;;;;;26.73;5.18;;;;;;;9.47;90.43;100758.03;4979227;28;20138;-84
2023/04/11 00:14:55;;;;;;;24.95;5.10;;;;;;;9.59;89.94;100783.66;4996740;28;20065;-85
2023/04/11 00:17:25;;;;;;;22.77;4.90;;;;;;;9.52;89.93;100774.81;4963380;28;20038;-85
2023/04/11 00:20:06;;;;;;;24.60;5.57;;;;;;;9.82;89.89;100825.34;4996630;28;20037;-85
2023/04/11 00:22:42;;;;;;;29.00;5.80;;;;;;;9.65;89.78;100798.72;4964904;28;20042;-86
2023/04/11 00:25:10;;;;;;;23.85;4.90;;;;;;;9.37;89.81;100765.78;4979208;28;20026;-85
2023/04/11 00:27:54;;;;;;;20.85;5.10;;;;;;;9.62;89.71;100804.81;4978936;28;20034;-85
2023/04/11 00:30:32;;;;;;;21.08;4.72;;;;;;;9.31;89.76;100753.41;4965182;28;20080;-85
2023/04/11 00:33:02;;;;;;;20.88;5.22;;;;;;;9.26;89.39;100763.00;4964706;28;20038;-85
2023/04/11 00:35:44;;;;;;;21.17;4.93;;;;;;;9.20;89.80;100769.06;4996115;28;20034;-85
2023/04/11 00:38:10;;;;;;;22.97;5.10;;;;;;;9.15;90.44;100767.22;4964098;28;20367;-85
2023/04/11 00:40:35;;;;;;;27.60;5.00;;;;;;;9.08;89.88;100766.25;4996118;28;20273;-85
2023/04/11 00:43:03;;;;;;;23.25;5.18;;;;;;;9.01;89.96;100765.25;4978452;28;20053;-85
2023/04/11 00:45:38;;;;;;;22.98;5.25;;;;;;;9.27;90.17;100807.84;4996260;28;20026;-85
2023/04/11 00:48:09;;;;;;;25.65;5.40;;;;;;;9.25;90.43;100812.22;4995439;28;20046;-85
2023/04/11 00:51:01;;;;;;;28.08;5.45;;;;;;;8.96;90.42;100774.84;4962479;28;20038;-86
2023/04/11 00:53:47;;;;;;;19.27;5.07;;;;;;;9.14;90.53;100808.50;4963692;28;20057;-85
2023/04/11 00:56:15;;;;;;;28.17;5.10;;;;;;;8.91;90.35;100773.00;4978325;28;20034;-85
2023/04/11 00:58:43;;;;;;;26.05;5.55;;;;;;;9.10;90.38;100797.91;4978222;28;20034;-85
2023/04/11 01:01:11;;;;;;;29.52;5.50;;;;;;;9.15;90.35;100801.50;4978300;28;20463;-86
2023/04/11 01:03:55;;;;;;;;;;;;;;;;;;;;;
2023/04/11 01:06:29;;;;;;;26.90;5.88;;;;;;;9.16;90.32;100809.41;4980006;28;20038;-86
2023/04/11 01:08:58;;;;;;;20.63;4.93;;;;;;;8.95;90.54;100767.81;4979039;28;20125;-85
2023/04/11 01:11:34;;;;;;;22.35;5.13;;;;;;;9.10;90.70;100801.41;4977909;28;20027;-85
2023/04/11 01:14:05;;;;;;;22.60;6.55;;;;;;;9.36;90.35;100833.47;4947796;28;20034;-85
2023/04/11 01:16:56;;;;;;;22.23;5.30;;;;;;;9.23;90.07;100813.94;4977794;28;20034;-86
2023/04/11 01:19:57;;;;;;;24.90;5.10;;;;;;;9.07;90.38;100788.19;4995140;28;20113;-85
2023/04/11 01:22:32;;;;;;;22.80;4.68;;;;;;;9.20;89.86;100805.97;4995747;28;20096;-85
2023/04/11 01:25:27;;;;;;;22.30;4.68;;;;;;;8.88;90.20;100754.50;4977933;28;20373;-85
2023/04/11 01:28:13;;;;;;;32.53;6.10;;;;;;;9.21;90.31;100809.50;4977095;28;20034;-85
2023/04/11 01:30:57;;;;;;;32.90;5.45;;;;;;;8.91;90.55;100773.91;4976927;28;20045;-86
2023/04/11 01:33:31;;;;;;;28.33;5.65;;;;;;;8.91;90.16;100780.91;4994010;28;20030;-85
2023/04/11 01:36:06;;;;;;;23.70;5.15;;;;;;;9.07;90.52;100814.53;4995520;28;20018;-85
2023/04/11 01:38:34;;;;;;;28.45;4.95;;;;;;;9.02;90.72;100813.59;4977793;28;20069;-85
2023/04/11 01:41:28;;;;;;;26.80;4.70;;;;;;;8.85;90.09;100792.22;4994950;28;20060;-85
2023/04/11 01:44:01;;;;;;;25.58;5.78;;;;;;;8.74;90.10;100775.38;4993543;28;20471;-85
2023/04/11 01:46:31;;;;;;;27.17;5.63;;;;;;;8.91;90.20;100818.69;4978205;28;20038;-85
2023/04/11 01:49:13;;;;;;;24.75;4.55;;;;;;;8.73;90.23;100784.97;4977033;28;20031;-85
2023/04/11 01:51:41;;;;;;;27.07;4.50;;;;;;;8.85;89.81;100810.66;4975465;28;20467;-85
2023/04/11 01:54:24;;;;;;;29.02;4.75;;;;;;;8.76;90.17;100798.22;4977324;28;20045;-85
2023/04/11 01:57:06;;;;;;;26.38;5.45;;;;;;;8.63;90.17;100795.34;4993422;28;20038;-84
2023/04/11 01:59:32;;;;;;;23.92;4.95;;;;;;;8.58;90.34;100789.13;4961099;28;20022;-85
2023/04/11 02:02:13;;;;;;;24.38;4.80;;;;;;;8.55;90.06;100799.59;4994369;28;20133;-85
2023/04/11 02:05:07;;;;;;;29.05;4.80;;;;;;;8.70;90.76;100831.50;4977164;28;20030;-86
2023/04/11 02:07:37;;;;;;;29.33;4.70;;;;;;;8.60;90.38;100816.34;4977108;28;20033;-85
2023/04/11 02:10:10;;;;;;;32.70;6.05;;;;;;;8.51;90.64;100799.53;4977245;28;20033;-85
2023/04/11 02:12:48;;;;;;;;;;;;;;;;;;;;;
2023/04/11 02:15:29;;;;;;;;;;;;;;;;;;;;;
2023/04/11 02:17:59;;;;;;;27.30;5.18;;;;;;;8.56;91.23;100817.16;4994361;28;20030;-85
2023/04/11 02:23:40;;;;;;;;;;;;;;;;;;;;;
2023/04/11 02:26:17;;;;;;;27.33;6.00;;;;;;;8.45;90.39;100804.69;4993992;28;20036;-85
2023/04/11 02:28:50;;;;;;;28.10;5.50;;;;;;;8.41;90.71;100816.03;4976898;28;20374;-85
2023/04/11 02:31:23;;;;;;;27.10;5.00;;;;;;;8.40;90.64;100813.38;4977019;28;20042;-86
2023/04/11 02:33:51;;;;;;;26.45;4.88;;;;;;;8.57;90.79;100843.53;4976796;28;20026;-86
2023/04/11 02:36:22;;;;;;;25.80;4.95;;;;;;;8.65;90.60;100854.19;4960569;28;20026;-86
2023/04/11 02:38:55;;;;;;;26.30;5.18;;;;;;;8.62;91.17;100851.53;4976420;28;20521;-86
2023/04/11 02:41:41;;;;;;;23.13;5.18;;;;;;;8.43;90.42;100814.28;4977238;28;20026;-86
2023/04/11 02:44:20;;;;;;;;;;;;;;;;;;;;;
2023/04/11 02:47:00;;;;;;;23.77;4.88;;;;;;;8.70;90.17;100863.09;4978286;28;20036;-87
2023/04/11 02:49:54;;;;;;;27.08;5.10;;;;;;;8.60;89.90;100859.38;4961886;28;20022;-86
2023/04/11 02:52:48;;;;;;;24.00;5.80;;;;;;;8.74;89.36;100876.34;4949141;28;20022;-85
2023/04/11 02:55:32;;;;;;;22.05;4.35;;;;;;;8.40;89.33;100824.78;4961351;28;20378;-85
2023/04/11 02:58:02;;;;;;;28.27;4.60;;;;;;;8.69;89.29;100878.03;4946822;28;20034;-85
2023/04/11 03:00:38;;;;;;;22.50;5.35;;;;;;;8.36;89.10;100828.19;4976405;28;20462;-86
2023/04/11 03:03:10;;;;;;;24.02;4.72;;;;;;;8.59;88.98;100870.78;4960685;28;20041;-84
2023/04/11 03:05:39;;;;;;;22.60;4.45;;;;;;;8.29;89.28;100828.91;4976476;28;20081;-85
2023/04/11 03:08:24;;;;;;;23.42;4.22;;;;;;;8.34;89.21;100836.91;4976380;28;20034;-85
2023/04/11 03:11:12;;;;;;;21.95;4.32;;;;;;;8.26;88.72;100832.38;4960623;28;20451;-86
2023/04/11 03:13:44;;;;;;;19.98;3.75;;;;;;;8.58;89.33;100887.44;4962887;28;20084;-86
2023/04/11 03:16:12;;;;;;;27.45;4.65;;;;;;;8.59;88.66;100896.25;4994009;28;20026;-92
2023/04/11 03:18:40;;;;;;;16.40;3.53;;;;;;;8.58;89.11;100898.00;4976933;28;20366;-92
2023/04/11 03:21:11;;;;;;;25.45;3.90;;;;;;;8.59;88.72;100891.84;4976537;28;20026;-92
2023/04/11 03:23:42;;;;;;;30.73;4.30;;;;;;;8.59;88.77;100902.38;4994458;28;20038;-92
2023/04/11 03:26:09;;;;;;;21.90;4.03;;;;;;;8.63;88.11;100909.50;4977295;28;20026;-94
2023/04/11 03:28:35;;;;;;;23.63;3.95;;;;;;;8.65;87.94;100918.34;4995132;28;20042;-92
2023/04/11 03:31:00;;;;;;;18.45;3.88;;;;;;;8.64;87.33;100919.16;4995102;28;20364;-91
2023/04/11 03:33:26;;;;;;;15.52;3.42;;;;;;;8.61;87.40;100921.75;4977814;28;20113;-91
2023/04/11 03:35:54;;;;;;;22.70;3.22;;;;;;;8.62;87.56;100923.53;4977801;28;20038;-92
2023/04/11 03:38:22;;;;;;;19.85;3.10;;;;;;;8.63;87.15;100921.78;4995968;28;20057;-95
2023/04/11 03:40:47;;;;;;;17.20;3.13;;;;;;;8.67;86.73;100932.41;4977991;28;20050;-93
2023/04/11 03:43:19;;;;;;;20.10;4.25;;;;;;;8.56;86.57;100917.25;4976674;28;20073;-93
2023/04/11 03:45:47;;;;;;;20.47;3.43;;;;;;;8.68;86.74;100930.66;4977195;28;20065;-92
2023/04/11 03:48:15;;;;;;;17.85;3.25;;;;;;;8.66;86.37;100927.13;4976165;28;20626;-93
2023/04/11 03:50:40;;;;;;;13.68;2.90;;;;;;;8.67;86.55;100939.44;4994094;28;20030;-92
2023/04/11 03:53:06;;;;;;;16.75;2.92;;;;;;;8.57;86.60;100929.56;4980546;28;20041;-93
2023/04/11 03:55:31;;;;;;;19.25;3.25;;;;;;;8.67;86.76;100952.59;4997264;28;20022;-92
2023/04/11 03:57:57;;;;;;;15.55;2.97;;;;;;;8.55;86.64;100923.38;4997550;28;20363;-92
2023/04/11 04:00:22;;;;;;;14.85;2.88;;;;;;;8.66;86.10;100946.44;4980010;28;20348;-92
2023/04/11 04:02:48;;;;;;;19.92;3.20;;;;;;;8.49;85.42;100925.03;4979721;28;20037;-92
2023/04/11 04:05:18;;;;;;;20.13;3.50;;;;;;;8.46;85.85;100929.34;4996738;28;20037;-92
2023/04/11 04:07:44;;;;;;;17.48;3.30;;;;;;;8.44;86.21;100928.44;4997147;28;20487;-92
2023/04/11 04:10:12;;;;;;;14.10;3.33;;;;;;;8.57;85.33;100948.91;4979227;28;20114;-93
2023/04/11 04:12:38;;;;;;;22.25;3.08;;;;;;;8.50;85.46;100944.34;4979824;28;20110;-93
2023/04/11 04:15:04;;;;;;;16.70;3.13;;;;;;;8.50;85.35;100942.59;4963269;28;20030;-92
2023/04/11 04:17:30;;;;;;;14.80;3.20;;;;;;;8.41;84.87;100925.72;4996423;28;20505;-93
2023/04/11 04:19:57;;;;;;;16.30;3.10;;;;;;;8.41;85.28;100938.91;4996505;28;20045;-93
2023/04/11 04:22:25;;;;;;;15.77;3.25;;;;;;;8.44;85.49;100954.78;4980118;28;20422;-92
2023/04/11 04:24:50;;;;;;;15.75;3.17;;;;;;;8.36;85.39;100951.03;4980004;28;20026;-92
2023/04/11 04:27:18;;;;;;;15.13;3.50;;;;;;;8.30;85.55;100946.50;4996424;28;20056;-92
2023/04/11 04:29:49;;;;;;;17.67;3.30;;;;;;;8.36;85.74;100958.94;4996493;28;20033;-93
2023/04/11 04:32:22;;;;;;;20.35;3.42;;;;;;;8.29;85.99;100953.53;4979774;28;20037;-93
2023/04/11 04:34:54;;;;;;;12.70;3.38;;;;;;;8.18;86.43;100954.13;4996702;28;20027;-93
2023/04/11 04:37:29;;;;;;;15.57;3.65;;;;;;;8.12;86.67;100960.16;4979867;28;20097;-93
2023/04/11 04:39:56;;;;;;;17.88;3.35;;;;;;;8.16;86.39;100976.91;4996939;28;20098;-93
2023/04/11 04:42:26;;;;;;;15.88;3.10;;;;;;;8.19;87.05;100992.78;4996404;28;20062;-92
2023/04/11 04:44:53;;;;;;;18.95;3.70;;;;;;;8.12;86.93;100986.47;4979031;28;20034;-92
2023/04/11 04:47:22;;;;;;;10.98;3.00;;;;;;;8.05;87.43;100976.69;4996124;28;20121;-93
2023/04/11 04:49:51;;;;;;;21.90;3.38;;;;;;;8.09;87.81;100985.53;4978617;28;20117;-92
2023/04/11 04:52:16;;;;;;;19.88;3.33;;;;;;;7.95;87.17;100978.19;4996813;28;20443;-93
2023/04/11 04:54:42;;;;;;;18.23;4.00;;;;;;;7.96;87.69;100989.59;4978718;28;20118;-93
2023/04/11 04:57:10;;;;;;;17.17;3.42;;;;;;;7.98;87.48;100999.34;4996469;28;20025;-93
2023/04/11 04:59:35;;;;;;;20.48;3.35;;;;;;;7.86;87.88;100991.13;4996598;28;20050;-93
2023/04/11 05:02:01;;;;;;;19.05;3.58;;;;;;;7.95;87.59;101011.53;4995137;28;20378;-92
2023/04/11 05:04:29;;;;;;;19.00;3.42;;;;;;;7.85;88.15;101005.16;4995811;28;20034;-93
2023/04/11 05:06:54;;;;;;;16.17;3.15;;;;;;;7.81;88.24;101010.31;4978368;28;20027;-93
2023/04/11 05:09:20;;;;;;;16.75;3.33;;;;;;;7.80;88.33;101014.69;4978755;28;20375;-92
2023/04/11 05:11:46;;;;;;;15.70;3.05;;;;;;;7.78;88.34;101003.22;4978930;28;20363;-92
2023/04/11 05:14:11;;;;;;;16.83;3.35;;;;;;;7.75;88.31;101006.69;4995794;28;20387;-92
2023/04/11 05:16:40;;;;;;;13.32;3.25;;;;;;;7.86;87.60;101029.72;4963001;28;20042;-93
2023/04/11 05:19:11;;;;;;;18.95;3.45;;;;;;;7.71;88.21;101015.34;4978426;28;20045;-92
2023/04/11 05:21:37;;;;;;;16.67;3.13;;;;;;;7.82;88.10;101027.88;4978467;28;20030;-92
2023/04/11 05:24:02;;;;;;;13.98;3.05;;;;;;;7.77;88.50;101022.50;4978009;28;20475;-92
2023/04/11 05:26:28;;;;;;;12.25;2.97;;;;;;;7.80;88.02;101033.09;4978207;28;20060;-92
2023/04/11 05:28:57;;;;;;;18.17;3.15;;;;;;;7.76;88.94;101020.72;4995661;28;20026;-92
2023/04/11 05:31:24;;;;;;;14.90;2.95;;;;;;;7.82;88.71;101028.75;4977778;28;20041;-92
2023/04/11 05:33:52;;;;;;;16.83;3.40;;;;;;;7.95;88.40;101043.09;4978429;28;20065;-92
2023/04/11 05:36:18;;;;;;;13.73;3.28;;;;;;;8.02;88.31;101045.03;4995139;28;20031;-92
2023/04/11 05:38:47;;;;;;;15.35;3.03;;;;;;;8.11;88.16;101049.63;4978105;28;20030;-92
2023/04/11 05:41:12;;;;;;;12.57;3.05;;;;;;;8.10;87.31;101047.84;4995394;28;20037;-93
2023/04/11 05:43:38;;;;;;;15.38;2.97;;;;;;;8.27;87.07;101070.19;4978810;28;20034;-93
2023/04/11 05:46:06;;;;;;;20.05;3.08;;;;;;;8.16;87.07;101045.34;4977989;28;20065;-91
2023/04/11 05:48:41;;;;;;;12.32;2.53;;;;;;;8.34;86.28;101069.47;4995673;28;20381;-92
2023/04/11 05:51:07;;;;;;;17.92;3.35;;;;;;;8.36;86.36;101066.91;5006541;28;20028;-92
2023/04/11 05:53:32;;;;;;;16.42;3.20;;;;;;;8.41;85.83;101065.28;5001480;28;20089;-92
2023/04/11 05:55:58;;;;;;;16.15;2.90;;;;;;;8.59;85.53;101083.25;5002140;28;20018;-90
2023/04/11 05:58:28;;;;;;;12.90;3.10;;;;;;;8.55;85.07;101070.84;5018403;28;20049;-89
2023/04/11 06:00:54;;;;;;;15.05;2.97;;;;;;;8.69;85.40;101093.13;5004184;28;20030;-90
2023/04/11 06:03:20;;;;;;;13.35;2.83;;;;;;;8.67;85.15;101079.94;4995823;28;20030;-91
2023/04/11 06:05:46;;;;;;;18.77;3.15;;;;;;;8.70;84.78;101076.47;4995441;28;20105;-90
2023/04/11 06:08:16;;;;;;;13.15;2.65;;;;;;;8.76;84.47;101093.28;4977346;28;20049;-91
2023/04/11 06:10:46;;;;;;;13.73;2.97;;;;;;;8.64;84.63;101076.31;4978055;28;20023;-91
2023/04/11 06:13:20;;;;;;;12.35;2.80;;;;;;;8.71;84.27;101096.69;4977239;28;20069;-91
2023/04/11 06:15:46;;;;;;;11.77;3.00;;;;;;;8.68;84.27;101102.78;4995011;28;20027;-90
2023/04/11 06:18:38;;;;;;;14.38;2.90;;;;;;;8.72;84.38;101103.75;4994531;28;20037;-90
2023/04/11 06:21:04;;;;;;;15.02;3.03;;;;;;;8.73;84.40;101105.50;4998526;28;20120;-89
2023/04/11 06:23:32;;;;;;;15.75;2.70;;;;;;;8.81;83.83;101101.28;4987217;28;20030;-85
2023/04/11 06:26:09;;;;;;;;;;;;;;;;;;;;;
2023/04/11 06:28:44;;;;;;;14.68;3.00;;;;;;;9.09;83.28;101089.63;5001523;28;20109;-91
2023/04/11 06:31:12;;;;;;;13.70;3.38;;;;;;;9.16;82.56;101101.16;4976475;28;20099;-90
2023/04/11 06:33:44;;;;;;;13.40;3.40;;;;;;;9.25;82.67;101091.72;4994790;28;20030;-91
2023/04/11 06:36:13;;;;;;;15.13;3.30;;;;;;;9.48;82.09;101107.09;4977511;28;20034;-90
2023/04/11 06:38:42;;;;;;;12.93;2.95;;;;;;;9.62;81.43;101102.06;4994974;28;20040;-91
2023/04/11 06:41:17;;;;;;;;;;;;;;;;;;;;;
2023/04/11 06:43:45;;;;;;;16.92;2.80;;;;;;;9.83;80.74;101113.00;4994753;28;20034;-90
2023/04/11 06:46:23;;;;;;;;;;;;;;;;;;;;;
2023/04/11 06:48:49;;;;;;;16.13;2.92;;;;;;;10.10;79.41;101112.59;4995136;28;20054;-90
2023/04/11 06:51:17;;;;;;;7.65;2.45;;;;;;;10.26;79.04;101127.88;4995218;28;20450;-90
2023/04/11 06:53:45;;;;;;;11.73;2.80;;;;;;;10.24;78.02;101105.84;4977036;28;20463;-89
2023/04/11 06:56:34;;;;;;;11.00;2.80;;;;;;;10.38;77.01;101136.88;4977974;28;20033;-89
2023/04/11 06:59:01;;;;;;;14.65;2.88;;;;;;;10.42;77.77;101136.94;4993847;28;20459;-89
2023/04/11 07:01:36;;;;;;;16.05;3.20;;;;;;;10.57;76.05;101143.31;4976627;28;20467;-89
2023/04/11 07:04:11;;;;;;;12.88;2.80;;;;;;;10.65;76.06;101139.94;4994132;28;20025;-89
2023/04/11 07:06:37;;;;;;;10.95;2.97;;;;;;;10.70;74.76;101125.03;4976995;28;20467;-89
2023/04/11 07:09:13;;;;;;;13.65;3.00;;;;;;;10.96;75.15;101148.31;4993772;28;20109;-90
2023/04/11 07:11:49;;;;;;;15.38;2.78;;;;;;;10.98;74.78;101125.44;4994813;28;20034;-89
2023/04/11 07:14:22;;;;;;;10.35;2.72;;;;;;;11.16;72.63;101152.13;4977216;28;20029;-89
2023/04/11 07:16:52;;;;;;;16.88;3.70;;;;;;;11.19;73.10;101138.06;4994232;28;20073;-90
2023/04/11 07:19:20;;;;;;;16.92;3.20;;;;;;;11.35;72.59;101161.19;4976277;28;20038;-89
2023/04/11 07:21:48;;;;;;;10.68;2.90;;;;;;;11.56;73.03;101164.94;4994241;28;20034;-89
2023/04/11 07:24:17;;;;;;;12.15;2.85;;;;;;;11.47;70.66;101157.78;4993749;28;20091;-90
2023/04/11 07:26:49;;;;;;;11.98;3.20;;;;;;;11.46;71.19;101172.78;4978703;28;20472;-91
2023/04/11 07:29:25;;;;;;;15.90;3.40;;;;;;;11.29;71.24;101155.81;4980504;28;20080;-90
2023/04/11 07:31:55;;;;;;;14.23;2.72;;;;;;;11.09;71.05;101155.56;4980228;28;20037;-91
2023/04/11 07:34:25;;;;;;;17.30;3.15;;;;;;;11.10;72.69;101167.03;4980121;28;20069;-91
2023/04/11 07:36:51;;;;;;;13.60;3.40;;;;;;;11.08;71.83;101158.16;4997704;28;20371;-90
2023/04/11 07:39:26;;;;;;;15.07;2.95;;;;;;;11.14;71.95;101182.06;4980115;28;20026;-89
2023/04/11 07:41:57;;;;;;;13.93;3.25;;;;;;;11.08;71.60;101188.16;4980545;28;20104;-91
2023/04/11 07:44:22;;;;;;;15.18;3.00;;;;;;;10.89;71.30;101170.25;4998025;28;20049;-90
2023/04/11 07:46:50;;;;;;;15.73;3.20;;;;;;;10.92;71.46;101173.84;4997467;28;20101;-88
2023/04/11 07:49:15;;;;;;;13.52;3.05;;;;;;;10.91;71.27;101174.69;4981157;28;20373;-88
2023/04/11 07:51:41;;;;;;;12.93;3.20;;;;;;;11.04;72.09;101162.53;4980532;28;20117;-88
2023/04/11 07:54:14;;;;;;;12.35;3.13;;;;;;;11.28;71.55;101164.63;4980057;28;20058;-88
2023/04/11 07:56:40;;;;;;;12.63;3.10;;;;;;;11.38;70.05;101165.63;4980667;28;20463;-89
2023/04/11 07:59:10;;;;;;;16.02;3.00;;;;;;;11.69;70.20;101193.34;4979817;28;20113;-88
2023/04/11 08:01:45;;;;;;;14.25;3.55;;;;;;;11.87;66.96;101160.94;4980734;28;20033;-88
2023/04/11 08:04:11;;;;;;;13.48;2.97;;;;;;;12.09;68.03;101173.53;4980231;28;20052;-89
2023/04/11 08:06:39;;;;;;;10.32;3.28;;;;;;;12.36;66.05;101193.19;4997055;28;20450;-88
2023/04/11 08:09:04;;;;;;;12.57;3.05;;;;;;;12.44;65.27;101183.56;4963494;28;20030;-88
2023/04/11 08:11:30;;;;;;;14.13;2.88;;;;;;;12.47;65.11;101200.38;4997136;28;20121;-88
2023/04/11 08:13:56;;;;;;;10.70;3.00;;;;;;;12.37;65.20;101184.34;4996683;28;20526;-89
2023/04/11 08:16:21;;;;;;;13.50;3.20;;;;;;;12.44;64.74;101191.50;4997089;28;20101;-88
2023/04/11 08:18:49;;;;;;;9.73;2.72;;;;;;;12.63;63.18;101197.81;4979802;28;20466;-88
2023/04/11 08:21:15;;;;;;;10.45;2.47;;;;;;;12.68;62.32;101186.41;4997087;28;20026;-88
2023/04/11 08:23:40;;;;;;;13.27;2.95;;;;;;;12.81;61.87;101197.09;4996537;28;20038;-88
2023/04/11 08:26:07;;;;;;;12.50;2.50;;;;;;;12.93;62.95;101223.69;4979218;28;20092;-88
2023/04/11 08:28:34;;;;;;;13.77;2.90;;;;;;;13.00;62.69;101202.53;4980140;28;20038;-88
2023/04/11 08:31:01;;;;;;;12.27;2.55;;;;;;;13.14;60.26;101205.25;4996330;28;20022;-89
2023/04/11 08:33:34;;;;;;;12.43;2.75;;;;;;;13.06;60.41;101216.69;4978984;28;20022;-89
2023/04/11 08:36:02;;;;;;;10.73;2.65;;;;;;;12.91;59.58;101236.06;4962689;28;20034;-88
2023/04/11 08:38:30;;;;;;;10.13;2.70;;;;;;;12.53;60.46;101234.00;4979749;28;20053;-88
2023/04/11 08:40:56;;;;;;;17.58;2.70;;;;;;;12.65;60.51;101225.25;4979186;28;20022;-88
2023/04/11 08:43:27;;;;;;;10.07;2.40;;;;;;;13.00;59.33;101234.38;4978965;28;20045;-89
2023/04/11 08:45:55;;;;;;;9.68;2.72;;;;;;;13.01;57.82;101233.47;4979351;28;20355;-88
2023/04/11 08:48:24;;;;;;;9.43;2.30;;;;;;;13.11;57.21;101252.13;4996288;28;20469;-89
2023/04/11 08:50:52;;;;;;;8.82;2.40;;;;;;;12.78;56.69;101221.81;4996091;28;20332;-88
2023/04/11 08:53:20;;;;;;;11.82;2.60;;;;;;;13.09;56.79;101246.81;4996109;28;20034;-88
2023/04/11 08:55:48;;;;;;;8.93;2.25;;;;;;;13.24;57.26;101249.59;4995833;28;20057;-89
2023/04/11 08:58:16;;;;;;;10.02;2.30;;;;;;;13.36;57.67;101240.84;4978421;28;20537;-88
2023/04/11 09:00:46;;;;;;;9.63;2.47;;;;;;;13.31;56.46;101250.50;4996456;28;20030;-89
2023/04/11 09:03:15;;;;;;;10.13;2.38;;;;;;;13.21;56.26;101235.38;4995924;28;20066;-88
2023/04/11 09:05:53;;;;;;;;;;;;;;;;;;;;;
2023/04/11 09:08:28;;;;;;;11.82;2.70;;;;;;;13.33;56.13;101229.31;4996526;28;20435;-88
2023/04/11 09:11:02;;;;;;;7.88;2.40;;;;;;;13.37;57.33;101208.09;4996373;28;20066;-89
2023/04/11 09:13:31;;;;;;;12.85;2.53;;;;;;;13.34;54.59;101218.69;4978633;28;20036;-88
2023/04/11 09:16:16;;;;;;;8.52;2.55;;;;;;;13.38;56.06;101220.47;4978200;28;20113;-88
2023/04/11 09:18:47;;;;;;;9.55;2.47;;;;;;;13.53;55.45;101220.56;4996304;28;20344;-88
2023/04/11 09:21:16;;;;;;;11.23;3.00;;;;;;;13.67;55.09;101233.03;4978487;28;20030;-88
2023/04/11 09:23:44;;;;;;;13.90;2.63;;;;;;;13.64;56.52;101230.34;4996053;28;20058;-88
2023/04/11 09:26:12;;;;;;;8.85;2.28;;;;;;;13.65;56.04;101225.03;4995920;28;20371;-87
2023/04/11 09:28:52;;;;;;;10.63;2.17;;;;;;;13.62;56.13;101235.66;4995457;28;20034;-88
2023/04/11 09:31:18;;;;;;;11.02;2.60;;;;;;;13.54;55.51;101234.72;4978749;28;20081;-88
2023/04/11 09:33:56;;;;;;;10.02;2.40;;;;;;;13.90;55.93;101246.38;4962365;28;20031;-87
2023/04/11 09:36:23;;;;;;;12.98;2.55;;;;;;;14.24;54.33;101234.94;4995033;28;20186;-87
2023/04/11 09:38:50;;;;;;;12.52;2.53;;;;;;;14.56;53.40;101225.25;4995374;28;20026;-87
2023/04/11 09:41:31;;;;;;;9.60;2.20;;;;;;;14.46;52.20;101235.88;4978037;28;20026;-88
2023/04/11 09:43:57;;;;;;;9.10;2.55;;;;;;;14.30;51.95;101239.38;4995481;28;20359;-88
2023/04/11 09:46:24;;;;;;;11.93;2.45;;;;;;;14.31;51.69;101234.97;4994107;28;20132;-88
2023/04/11 09:48:51;;;;;;;8.40;2.10;;;;;;;14.67;50.89;101228.81;4994997;28;20053;-87
2023/04/11 09:51:18;;;;;;;8.27;2.45;;;;;;;15.03;50.66;101231.47;4994657;28;20077;-87
2023/04/11 09:53:46;;;;;;;10.50;2.60;;;;;;;15.13;48.27;101235.00;4977636;28;20031;-87
2023/04/11 09:56:12;;;;;;;7.63;2.20;;;;;;;15.08;48.05;101250.09;4995235;28;20034;-87
2023/04/11 09:58:41;;;;;;;7.10;2.03;;;;;;;15.13;47.05;101242.09;4995835;28;20026;-88
2023/04/11 10:01:09;;;;;;;7.93;2.08;;;;;;;15.03;45.29;101244.78;4996228;28;20146;-87
2023/04/11 10:03:38;;;;;;;11.27;2.58;;;;;;;15.02;45.33;101235.00;4995222;28;20035;-87
2023/04/11 10:06:13;;;;;;;9.35;2.15;;;;;;;15.09;47.12;101240.34;4978695;28;20347;-88
2023/04/11 10:08:42;;;;;;;8.63;2.20;;;;;;;15.32;45.70;101262.47;4977262;28;20084;-87
2023/04/11 10:11:32;;;;;;;10.32;2.22;;;;;;;15.58;46.39;101240.19;4978010;28;20030;-87
2023/04/11 10:14:05;;;;;;;9.02;2.40;;;;;;;15.93;44.93;101246.31;5003044;28;20026;-88
2023/04/11 10:17:09;;;;;;;7.50;2.33;;;;;;;16.06;45.30;101228.50;5008852;28;20030;-87
2023/04/11 10:19:34;;;;;;;10.07;2.13;;;;;;;16.06;44.26;101241.81;4977287;28;20053;-88
2023/04/11 10:21:59;;;;;;;14.38;2.90;;;;;;;16.03;44.85;101252.47;4977026;28;20459;-88
2023/04/11 10:24:25;;;;;;;9.80;2.75;;;;;;;15.94;45.31;101253.41;4994350;28;20088;-88
2023/04/11 10:26:52;;;;;;;10.15;2.30;;;;;;;15.84;43.86;101249.00;4960915;28;20030;-88
2023/04/11 10:29:33;;;;;;;11.40;2.35;;;;;;;16.13;45.82;101238.19;4994357;28;20030;-87
2023/04/11 10:32:13;;;;;;;10.48;2.50;;;;;;;16.34;45.66;101246.97;4994135;28;20026;-87
2023/04/11 10:34:59;;;;;;;7.95;2.45;;;;;;;16.51;44.01;101258.41;4977151;28;20335;-87
2023/04/11 10:37:35;;;;;;;7.63;2.30;;;;;;;16.57;43.58;101258.34;5006144;28;20030;-88
2023/04/11 10:40:00;;;;;;;8.27;2.42;;;;;;;16.65;41.32;101263.63;4995468;28;20030;-88
2023/04/11 10:42:33;;;;;;;5.00;2.05;;;;;;;16.59;41.77;101251.25;4994252;28;20149;-88
2023/04/11 10:45:20;;;;;;;9.30;2.55;;;;;;;16.74;41.29;101255.59;4976836;28;20049;-88
2023/04/11 10:47:55;;;;;;;5.28;2.33;;;;;;;16.88;43.15;101248.38;4976318;28;20046;-87
2023/04/11 10:50:30;;;;;;;10.80;2.53;;;;;;;17.15;41.70;101251.69;4994199;28;20112;-89
2023/04/11 10:53:13;;;;;;;7.63;2.08;;;;;;;17.12;39.97;101235.69;4994382;28;20022;-89
2023/04/11 10:55:49;;;;;;;6.95;2.05;;;;;;;17.39;40.93;101254.09;4994265;28;20053;-89
2023/04/11 10:58:21;;;;;;;8.93;2.38;;;;;;;17.63;40.60;101252.03;4976654;28;20029;-88
2023/04/11 11:00:49;;;;;;;7.93;2.33;;;;;;;17.74;38.40;101248.38;4995171;28;20035;-87
2023/04/11 11:03:27;;;;;;;7.20;2.30;;;;;;;17.93;40.08;101237.44;4998209;28;20029;-87
2023/04/11 11:06:01;;;;;;;10.15;2.50;;;;;;;18.00;37.99;101248.03;4998528;28;20470;-88
2023/04/11 11:08:34;;;;;;;6.50;2.20;;;;;;;17.72;38.81;101255.47;4998017;28;20094;-87
2023/04/11 11:11:07;;;;;;;10.75;2.00;;;;;;;17.91;36.74;101257.97;4981227;28;20422;-87
2023/04/11 11:13:43;;;;;;;9.95;2.85;;;;;;;18.22;37.23;101245.94;4998311;28;20320;-87
2023/04/11 11:16:14;;;;;;;7.30;2.03;;;;;;;18.30;35.59;101243.16;4964346;28;20026;-88
2023/04/11 11:18:43;;;;;;;6.28;2.38;;;;;;;18.38;36.78;101253.75;4998548;28;20064;-87
2023/04/11 11:21:08;;;;;;;7.50;2.25;;;;;;;18.40;34.76;101255.50;4980402;28;20026;-87
2023/04/11 11:23:34;;;;;;;6.10;2.00;;;;;;;18.46;35.44;101257.22;4980437;28;20038;-88
2023/04/11 11:25:59;;;;;;;8.27;2.28;;;;;;;18.19;35.23;101266.50;4980231;28;20362;-87
2023/04/11 11:28:25;;;;;;;7.60;2.13;;;;;;;18.02;35.37;101253.34;4980455;28;20101;-88
2023/04/11 11:30:55;;;;;;;6.38;2.03;;;;;;;17.76;34.49;101253.69;4997719;28;20022;-89
2023/04/11 11:33:23;;;;;;;8.77;1.92;;;;;;;17.74;34.58;101261.75;4996129;28;20169;-89
2023/04/11 11:35:56;;;;;;;7.30;2.22;;;;;;;17.74;33.51;101264.41;4998204;28;20034;-87
2023/04/11 11:38:25;;;;;;;6.75;2.28;;;;;;;17.57;35.40;101262.81;4980119;28;20041;-87
2023/04/11 11:40:51;;;;;;;6.30;1.90;;;;;;;17.66;32.43;101266.25;4997625;28;20061;-88
2023/04/11 11:43:17;;;;;;;5.55;2.10;;;;;;;17.53;34.28;101269.97;4979793;28;20062;-88
2023/04/11 11:45:43;;;;;;;8.15;2.10;;;;;;;17.60;34.82;101273.44;4997091;28;20030;-87
2023/04/11 11:48:29;;;;;;;7.72;2.05;;;;;;;17.90;36.18;101265.13;4997574;28;20052;-87
2023/04/11 11:50:57;;;;;;;11.10;2.25;;;;;;;18.33;34.11;101256.50;4963645;28;20053;-87
2023/04/11 11:53:24;;;;;;;6.10;1.90;;;;;;;18.58;33.01;101262.34;4997596;28;20466;-87
2023/04/11 11:55:50;;;;;;;6.93;2.03;;;;;;;18.66;32.08;101273.81;4980025;28;20459;-87
2023/04/11 11:58:18;;;;;;;8.00;2.13;;;;;;;18.57;33.34;101260.59;4997262;28;20109;-87